Navan Bearbrook Airport

CA-0088 · Ontario, Canadá

METAR pasados CA-0088 · Navan Bearbrook Airport

A continuación puedes ver los METAR de los últimos días. Selecciona un año para ver los METAR más antiguos, desde el año 2007 en adelante.

6 de diciembre de 2022

Hora Código Tiempo Temp. Visibilidad Cielo nuboso Viento METAR/SPECI
11:00
V
3 °C 15 mi 7.300 ft 060° 060° 4 kt METAR CYND 061600Z 06004KT 15SM SCT039 OVC073 03/M01 A3024 RMK SC4AC4 SLP244
11:00
V
3 °C 15 mi 7.300 ft 060° 060° 4 kt METAR CYND 061600Z 06004KT 15SM SCT039 OVC073 03/M01 A3024 RMK SC4AC4 SLP244
10:34
V
3 °C 15 mi 3.500 ft Var Var 2 kt METAR CYND 061534Z VRB02KT 15SM BKN035 OVC072 03/M02 A3024 RMK SC6AC2 SLP245
10:00
V
3 °C 15 mi 5.500 ft 090° 090° 6 kt METAR CYND 061500Z 09006KT 15SM -SN BKN055 OVC080 03/M04 A3024 RMK SC6AC2 SLP244
09:00
V
2 °C 15 mi 6.000 ft 080° 080° 7 kt METAR CYND 061400Z 08007KT 15SM BKN060 OVC080 02/M04 A3022 RMK SC5AC3 PRESRR SLP237
08:00
V
2 °C 15 mi 6.000 ft 090° 090° 7 kt METAR CYND 061300Z 09007KT 15SM BKN060 OVC080 02/M04 A3020 RMK SC5AC3 SLP231
07:00
V
2 °C 15 mi 9.000 ft 090° 090° 5 kt METAR CYND 061200Z 09005KT 15SM OVC090 02/M04 A3018 RMK AC8 SLP225

5 de diciembre de 2022

Hora Código Tiempo Temp. Visibilidad Cielo nuboso Viento METAR/SPECI
21:00
V
2 °C 15 mi 10.000 ft 080° 080° 5 kt METAR CYND 060200Z 08005KT 15SM OVC100 02/M04 A3008 RMK AS8 LAST STFD OBS/NXT 061200Z SLP193
20:00
V
2 °C 15 mi 11.000 ft 080° 080° 4 kt METAR CYND 060100Z 08004KT 15SM OVC110 02/M04 A3008 RMK AS8 SLP192
19:00
V
2 °C 15 mi 14.000 ft 070° 070° 4 kt METAR CYND 060000Z 07004KT 15SM OVC140 02/M04 A3007 RMK AS8 SLP187
18:00
V
5 °C 15 mi 14.000 ft 190° 190° 4 kt METAR CYND 052300Z 19004KT 160V230 15SM OVC140 05/M06 A3005 RMK AS8 SLP181
17:00
V
4 °C 15 mi 15.000 ft 160° 160° 3 kt METAR CYND 052200Z 16003KT 100V260 15SM BKN150 BKN220 04/M05 A3003 RMK AC7CI1 CI TR SLP174
16:00
V
5 °C 15 mi 23.000 ft 180° 180° 3 kt METAR CYND 052100Z 18003KT 110V220 15SM SCT150 OVC230 05/M04 A3001 RMK AC3CI5 SLP166
15:00
V
5 °C 15 mi 23.000 ft 200° 200° 6 - 18 kt METAR CYND 052000Z 20006G18KT 160V240 15SM FEW140 BKN230 05/M04 A2999 RMK AC1CI6 SLP159
14:00
V
5 °C 15 mi 23.000 ft 200° 200° 5 kt METAR CYND 051900Z 20005KT 160V230 15SM BKN230 05/M04 A2997 RMK CI7 SLP152
13:00
V
4 °C 15 mi 22.000 ft 180° 180° 5 kt METAR CYND 051800Z 18005KT 140V200 15SM OVC220 04/M03 A2996 RMK CI8 SLP149
12:00
V
4 °C 15 mi 24.000 ft 160° 160° 9 kt METAR CYND 051700Z 16009KT 140V210 15SM FEW030 BKN240 04/M03 A2996 RMK SF1CI7 SF TR SLP151
11:00
V
4 °C 15 mi 24.000 ft 200° 200° 7 kt METAR CYND 051600Z 20007KT 15SM FEW030 BKN240 04/M03 A2997 RMK SC1CI7 SC TR SLP154
10:00
V
3 °C 15 mi - 140° 140° 8 kt METAR CYND 051500Z 14008KT 120V180 15SM FEW028 FEW150 SCT260 03/M03 A2998 RMK SC1AC1CI2 AC TR SLP155
09:00
V
1 °C 15 mi - 110° 110° 7 kt METAR CYND 051400Z 11007KT 15SM FEW023 FEW150 SCT250 01/M03 A2998 RMK SC1AC1CI1 SLP156
08:00
V
1 °C 15 mi - 190° 190° 4 kt METAR CYND 051300Z 19004KT 130V210 15SM FEW060 FEW150 01/M03 A2997 RMK SC1AC1 SC TR SLP154
07:00
V
1 °C 15 mi - 220° 220° 6 kt METAR CYND 051200Z 22006KT 180V270 15SM FEW150 01/M04 A2996 RMK AC2 SLP150

4 de diciembre de 2022

Hora Código Tiempo Temp. Visibilidad Cielo nuboso Viento METAR/SPECI
21:00
V
0 °C 15 mi 14.000 ft 200° 200° 7 kt METAR CYND 050200Z 20007KT 15SM FEW076 BKN140 M00/M06 A2998 RMK AC1AC4 LAST STFD OBS/NXT 051200Z SLP158
20:00
V
0 °C 15 mi 24.000 ft 220° 220° 9 - 16 kt METAR CYND 050100Z 22009G16KT 15SM FEW130 BKN240 M00/M06 A2999 RMK AC2CS5 SLP162
19:00
V
0 °C 15 mi 24.000 ft 210° 210° 11 - 21 kt METAR CYND 050000Z 21011G21KT 15SM SCT062 BKN240 M00/M05 A2999 RMK SC3CS3 SLP162
18:00
V
1 °C 15 mi 5.300 ft 210° 210° 5 kt METAR CYND 042300Z 21005KT 15SM FEW032 BKN053 01/M06 A2999 RMK SC2SC4 SLP161
17:00
V
-2 °C 15 mi 7.300 ft Var 000° 0 kt METAR CYND 042200Z 00000KT 15SM FEW051 BKN073 BKN240 M02/M06 A2999 RMK SC1AC4CI1 SLP160
16:00
V
-1 °C 15 mi 7.700 ft 070° 070° 6 kt METAR CYND 042100Z 07006KT 15SM FEW016 SCT051 BKN077 BKN240 M01/M05 A2999 RMK CU1SC3AC2CI1 CU TR SLP161
15:00
V
-1 °C 15 mi 3.600 ft 080° 080° 7 kt METAR CYND 042000Z 08007KT 15SM FEW020 BKN036 M01/M04 A3001 RMK CU1SC7 CU TR PRESFR SLP167
14:46
M
-1 °C 5 mi 2.100 ft 130° 130° 4 kt METAR CYND 041946Z 13004KT 5SM -SN BKN021 OVC035 M01/M04 A3002 RMK SN2SC3SC3 SLP172
14:19
I
-1 °C 2½ mi 2.100 ft 150° 150° 5 kt METAR CYND 041919Z 15005KT 100V170 2 1/2SM -SN OVC021 M01/M05 A3003 RMK SN6SC2 SLP176
14:12
I
-1 °C 3 mi 2.200 ft 110° 110° 7 kt METAR CYND 041912Z 11007KT 3SM -SN OVC022 M01/M06 A3004 RMK SN6SC2 SLP177
14:00
M
-1 °C 8 mi 2.400 ft 120° 120° 5 kt METAR CYND 041900Z 12005KT 8SM -SN OVC024 M01/M07 A3004 RMK SC8 SLP179
13:51
M
-1 °C 8 mi 2.900 ft 110° 110° 6 kt METAR CYND 041851Z 11006KT 8SM -SN OVC029 M01/M08 A3004 RMK SC8 SLP178
13:00
V
-2 °C 12 mi 3.000 ft 160° 160° 6 kt METAR CYND 041800Z 16006KT 12SM BKN030 OVC150 M02/M09 A3006 RMK SC7AS1 SLP186
12:00
V
-3 °C 15 mi 4.500 ft Var Var 2 kt METAR CYND 041700Z VRB02KT 15SM SCT028 BKN045 OVC074 M03/M12 A3010 RMK SC3SC3AC2 SLP198
11:00
V
-4 °C 15 mi 4.500 ft Var 000° 0 kt METAR CYND 041600Z 00000KT 15SM BKN045 OVC074 M04/M13 A3012 RMK SC5AC3 SLP206
10:00
V
-4 °C 15 mi 7.400 ft Var Var 2 kt METAR CYND 041500Z VRB02KT 15SM SCT048 OVC074 M04/M11 A3015 RMK SC3AC5 SLP216
09:00
V
-4 °C 15 mi 6.300 ft 250° 250° 3 kt METAR CYND 041400Z 25003KT 15SM FEW052 BKN063 M04/M10 A3018 RMK SC1SC6 SLP225
08:00
V
-5 °C 15 mi 6.100 ft 240° 240° 3 kt METAR CYND 041300Z 24003KT 15SM BKN061 M05/M09 A3019 RMK SC7 SLP230
07:00
V
-7 °C 15 mi - 260° 260° 4 kt METAR CYND 041200Z 26004KT 15SM FEW052 M07/M09 A3018 RMK SC1 SLP227

Nosotros y terceros seguimos tu comportamiento en Internet en nuestro sitio web con cookies. Si continúas, asumimos que estás de acuerdo con nuestra Política de cookies.